Time,TemperatureF,DewpointF,PressureIn,WindDirection,WindDirectionDegrees,WindSpeedMPH,WindSpeedGustMPH,Humidity,HourlyPrecipIn,Conditions,Clouds,dailyrainin,SoftwareType,DateUTC
2013-10-01 00:10:00,55.3,55.0,30.22,WSW,248,0.0,0.0,97,0.00,,,0.00,weatherlink.com 1.10,2013-10-01 04:10:00,
2013-10-01 00:25:00,55.3,55.0,30.22,WSW,248,0.0,0.0,98,0.00,,,0.00,weatherlink.com 1.10,2013-10-01 04:25:00,
2013-10-01 00:40:00,55.6,55.0,30.22,WSW,243,0.0,0.0,98,0.00,,,0.00,weatherlink.com 1.10,2013-10-01 04:40:00,
2013-10-01 00:55:00,56.0,56.0,30.21,WSW,245,0.0,0.0,98,0.00,,,0.00,weatherlink.com 1.10,2013-10-01 04:55:00,
2013-10-01 01:10:00,56.2,56.0,30.21,WSW,253,1.0,1.0,98,0.00,,,0.00,weatherlink.com 1.10,2013-10-01 05:10:00,
2013-10-01 01:25:00,56.0,56.0,30.21,WSW,246,0.0,1.0,98,0.00,,,0.00,weatherlink.com 1.10,2013-10-01 05:25:00,
2013-10-01 01:40:00,56.2,56.0,30.21,WSW,244,0.0,0.0,98,0.00,,,0.00,weatherlink.com 1.10,2013-10-01 05:40:00,
2013-10-01 02:10:00,55.9,55.0,30.21,WSW,244,0.0,1.0,98,0.00,,,0.00,weatherlink.com 1.10,2013-10-01 06:10:00,
2013-10-01 02:25:00,55.9,55.0,30.21,WSW,245,0.0,0.0,98,0.00,,,0.00,weatherlink.com 1.10,2013-10-01 06:25:00,
2013-10-01 02:40:00,55.9,55.0,30.21,WSW,244,0.0,0.0,98,0.00,,,0.00,weatherlink.com 1.10,2013-10-01 06:40:00,
2013-10-01 02:55:00,55.9,55.0,30.21,WSW,244,0.0,1.0,98,0.00,,,0.00,weatherlink.com 1.10,2013-10-01 06:55:00,
2013-10-01 03:10:00,55.7,55.0,30.21,WSW,243,0.0,1.0,98,0.00,,,0.00,weatherlink.com 1.10,2013-10-01 07:10:00,
2013-10-01 03:25:00,55.3,55.0,30.21,WSW,255,1.0,1.0,98,0.00,,,0.00,weatherlink.com 1.10,2013-10-01 07:25:00,
2013-10-01 03:40:00,55.2,55.0,30.21,WSW,248,0.0,1.0,98,0.00,,,0.00,weatherlink.com 1.10,2013-10-01 07:40:00,
2013-10-01 03:55:00,55.0,55.0,30.21,WSW,243,0.0,1.0,98,0.00,,,0.00,weatherlink.com 1.10,2013-10-01 07:55:00,
2013-10-01 04:10:00,54.8,54.0,30.21,WSW,243,0.0,1.0,98,0.00,,,0.00,weatherlink.com 1.10,2013-10-01 08:10:00,
2013-10-01 04:25:00,54.6,54.0,30.22,WSW,239,0.0,1.0,98,0.00,,,0.00,weatherlink.com 1.10,2013-10-01 08:25:00,
2013-10-01 04:40:00,54.5,54.0,30.22,WSW,245,0.0,1.0,98,0.00,,,0.00,weatherlink.com 1.10,2013-10-01 08:40:00,
2013-10-01 04:55:00,54.2,54.0,30.22,SW,235,0.0,2.0,98,0.00,,,0.00,weatherlink.com 1.10,2013-10-01 08:55:00,
2013-10-01 05:10:00,53.8,53.0,30.23,WSW,249,0.0,2.0,98,0.00,,,0.00,weatherlink.com 1.10,2013-10-01 09:10:00,
2013-10-01 05:25:00,53.9,54.0,30.23,WSW,243,0.0,1.0,99,0.00,,,0.00,weatherlink.com 1.10,2013-10-01 09:25:00,
2013-10-01 05:40:00,53.9,54.0,30.24,WSW,243,0.0,1.0,99,0.00,,,0.00,weatherlink.com 1.10,2013-10-01 09:40:00,
2013-10-01 05:55:00,53.9,54.0,30.24,WSW,257,1.0,2.0,99,0.00,,,0.00,weatherlink.com 1.10,2013-10-01 09:55:00,
2013-10-01 06:10:00,53.4,53.0,30.24,WSW,239,0.0,1.0,98,0.00,,,0.00,weatherlink.com 1.10,2013-10-01 10:10:00,
2013-10-01 06:25:00,53.3,53.0,30.25,WSW,252,0.0,1.0,99,0.00,,,0.00,weatherlink.com 1.10,2013-10-01 10:25:00,
2013-10-01 06:40:00,53.3,53.0,30.25,WSW,251,0.0,1.0,99,0.00,,,0.00,weatherlink.com 1.10,2013-10-01 10:40:00,
2013-10-01 06:55:00,53.1,53.0,30.25,WSW,245,0.0,1.0,99,0.00,,,0.00,weatherlink.com 1.10,2013-10-01 10:55:00,
2013-10-01 07:10:00,53.0,53.0,30.26,WSW,239,0.0,1.0,99,0.00,,,0.00,weatherlink.com 1.10,2013-10-01 11:10:00,
2013-10-01 07:25:00,52.9,53.0,30.27,WSW,239,0.0,1.0,99,0.00,,,0.00,weatherlink.com 1.10,2013-10-01 11:25:00,
2013-10-01 07:40:00,53.0,53.0,30.27,WSW,238,0.0,1.0,99,0.00,,,0.00,weatherlink.com 1.10,2013-10-01 11:40:00,
2013-10-01 07:55:00,52.9,53.0,30.28,WSW,243,0.0,2.0,99,0.00,,,0.00,weatherlink.com 1.10,2013-10-01 11:55:00,
2013-10-01 08:10:00,53.0,53.0,30.28,WSW,248,0.0,1.0,99,0.00,,,0.00,weatherlink.com 1.10,2013-10-01 12:10:00,
2013-10-01 08:25:00,53.0,53.0,30.28,WSW,243,0.0,1.0,99,0.00,,,0.00,weatherlink.com 1.10,2013-10-01 12:25:00,
2013-10-01 08:40:00,53.1,53.0,30.28,WSW,246,0.0,1.0,99,0.00,,,0.00,weatherlink.com 1.10,2013-10-01 12:40:00,
2013-10-01 08:55:00,53.1,53.0,30.29,WSW,243,0.0,1.0,99,0.00,,,0.00,weatherlink.com 1.10,2013-10-01 12:55:00,
2013-10-01 09:10:00,53.8,54.0,30.29,SW,229,0.0,0.0,99,0.00,,,0.00,weatherlink.com 1.10,2013-10-01 13:10:00,
2013-10-01 09:25:00,54.2,54.0,30.29,SW,229,0.0,0.0,99,0.00,,,0.00,weatherlink.com 1.10,2013-10-01 13:25:00,
2013-10-01 09:41:00,54.3,54.0,30.30,WSW,244,0.0,1.0,99,0.00,,,0.00,weatherlink.com 1.10,2013-10-01 13:41:00,
2013-10-01 09:55:00,54.7,55.0,30.30,WSW,256,0.0,2.0,99,0.00,,,0.00,weatherlink.com 1.10,2013-10-01 13:55:00,
2013-10-01 10:10:00,55.2,55.0,30.30,WSW,243,0.0,2.0,99,0.00,,,0.00,weatherlink.com 1.10,2013-10-01 14:10:00,
2013-10-01 10:25:00,56.8,57.0,30.30,SW,219,0.0,2.0,99,0.00,,,0.00,weatherlink.com 1.10,2013-10-01 14:25:00,
2013-10-01 10:41:00,58.8,57.0,30.30,SW,222,0.0,1.0,95,0.00,,,0.00,weatherlink.com 1.10,2013-10-01 14:41:00,
2013-10-01 10:56:00,61.1,58.0,30.30,SW,217,1.0,3.0,89,0.00,,,0.00,weatherlink.com 1.10,2013-10-01 14:56:00,
2013-10-01 11:11:00,64.3,60.0,30.29,SSW,211,0.0,2.0,85,0.00,,,0.00,weatherlink.com 1.10,2013-10-01 15:11:00,
2013-10-01 11:26:00,65.6,60.0,30.29,SSW,200,0.0,2.0,83,0.00,,,0.00,weatherlink.com 1.10,2013-10-01 15:26:00,
2013-10-01 11:56:00,69.2,61.0,30.28,SSW,201,0.0,3.0,76,0.00,,,0.00,weatherlink.com 1.10,2013-10-01 15:56:00,
2013-10-01 12:11:00,71.8,62.0,30.28,SSW,205,1.0,2.0,70,0.00,,,0.00,weatherlink.com 1.10,2013-10-01 16:11:00,
2013-10-01 12:26:00,72.6,59.0,30.27,West,278,2.0,5.0,63,0.00,,,0.00,weatherlink.com 1.10,2013-10-01 16:26:00,
2013-10-01 12:41:00,73.4,57.0,30.26,SE,125,1.0,4.0,57,0.00,,,0.00,weatherlink.com 1.10,2013-10-01 16:41:00,
2013-10-01 12:56:00,75.3,58.0,30.26,West,275,2.0,4.0,55,0.00,,,0.00,weatherlink.com 1.10,2013-10-01 16:56:00,
2013-10-01 13:11:00,75.8,57.0,30.25,NNW,327,1.0,6.0,52,0.00,,,0.00,weatherlink.com 1.10,2013-10-01 17:11:00,
2013-10-01 13:26:00,76.2,58.0,30.25,NW,307,1.0,4.0,54,0.00,,,0.00,weatherlink.com 1.10,2013-10-01 17:26:00,
2013-10-01 13:41:00,76.2,57.0,30.24,NNW,333,0.0,7.0,52,0.00,,,0.00,weatherlink.com 1.10,2013-10-01 17:41:00,
2013-10-01 13:56:00,76.2,58.0,30.23,NW,305,0.0,8.0,53,0.00,,,0.00,weatherlink.com 1.10,2013-10-01 17:56:00,
2013-10-01 14:11:00,77.3,59.0,30.23,West,269,1.0,4.0,53,0.00,,,0.00,weatherlink.com 1.10,2013-10-01 18:11:00,
2013-10-01 14:26:00,76.3,58.0,30.22,WNW,295,1.0,4.0,54,0.00,,,0.00,weatherlink.com 1.10,2013-10-01 18:26:00,
2013-10-01 14:41:00,75.9,58.0,30.21,West,277,4.0,6.0,54,0.00,,,0.00,weatherlink.com 1.10,2013-10-01 18:41:00,
2013-10-01 14:56:00,75.1,59.0,30.21,WNW,288,3.0,6.0,57,0.00,,,0.00,weatherlink.com 1.10,2013-10-01 18:56:00,
2013-10-01 15:11:00,74.1,58.0,30.21,WSW,255,2.0,6.0,58,0.00,,,0.00,weatherlink.com 1.10,2013-10-01 19:11:00,
2013-10-01 15:26:00,74.4,60.0,30.21,NNW,329,0.0,3.0,61,0.00,,,0.00,weatherlink.com 1.10,2013-10-01 19:26:00,
2013-10-01 15:41:00,74.1,59.0,30.20,NNW,327,1.0,3.0,59,0.00,,,0.00,weatherlink.com 1.10,2013-10-01 19:41:00,
2013-10-01 15:56:00,73.7,59.0,30.20,NNW,330,2.0,2.0,61,0.00,,,0.00,weatherlink.com 1.10,2013-10-01 19:56:00,
2013-10-01 16:11:00,73.2,60.0,30.20,WSW,256,0.0,4.0,63,0.00,,,0.00,weatherlink.com 1.10,2013-10-01 20:11:00,
2013-10-01 16:26:00,72.2,60.0,30.20,WNW,300,2.0,4.0,66,0.00,,,0.00,weatherlink.com 1.10,2013-10-01 20:26:00,
2013-10-01 16:41:00,72.2,61.0,30.20,WNW,284,1.0,4.0,67,0.00,,,0.00,weatherlink.com 1.10,2013-10-01 20:41:00,
2013-10-01 16:56:00,72.8,61.0,30.20,West,281,0.0,4.0,67,0.00,,,0.00,weatherlink.com 1.10,2013-10-01 20:56:00,
2013-10-01 17:11:00,73.0,61.0,30.20,West,269,5.0,5.0,67,0.00,,,0.00,weatherlink.com 1.10,2013-10-01 21:11:00,
2013-10-01 17:27:00,72.8,61.0,30.20,WSW,248,1.0,3.0,67,0.00,,,0.00,weatherlink.com 1.10,2013-10-01 21:27:00,
2013-10-01 17:41:00,73.2,61.0,30.20,NW,325,0.0,5.0,65,0.00,,,0.00,weatherlink.com 1.10,2013-10-01 21:41:00,
2013-10-01 17:56:00,72.2,61.0,30.20,WSW,250,1.0,2.0,67,0.00,,,0.00,weatherlink.com 1.10,2013-10-01 21:56:00,
2013-10-01 18:12:00,71.5,62.0,30.20,NW,323,1.0,2.0,71,0.00,,,0.00,weatherlink.com 1.10,2013-10-01 22:12:00,
2013-10-01 18:26:00,71.0,63.0,30.21,West,278,0.0,0.0,75,0.00,,,0.00,weatherlink.com 1.10,2013-10-01 22:26:00,
2013-10-01 18:42:00,70.4,61.0,30.21,NW,312,0.0,1.0,72,0.00,,,0.00,weatherlink.com 1.10,2013-10-01 22:42:00,
2013-10-01 18:57:00,69.4,62.0,30.22,NW,310,0.0,1.0,76,0.00,,,0.00,weatherlink.com 1.10,2013-10-01 22:57:00,
2013-10-01 19:12:00,68.7,62.0,30.22,NW,309,0.0,0.0,80,0.00,,,0.00,weatherlink.com 1.10,2013-10-01 23:12:00,
2013-10-01 19:27:00,67.9,62.0,30.23,NW,309,0.0,0.0,81,0.00,,,0.00,weatherlink.com 1.10,2013-10-01 23:27:00,
2013-10-01 19:42:00,66.7,61.0,30.23,NW,309,0.0,0.0,82,0.00,,,0.00,weatherlink.com 1.10,2013-10-01 23:42:00,
2013-10-01 19:57:00,65.7,61.0,30.23,NW,309,0.0,0.0,85,0.00,,,0.00,weatherlink.com 1.10,2013-10-01 23:57:00,
2013-10-01 20:12:00,64.8,61.0,30.24,NW,309,0.0,0.0,87,0.00,,,0.00,weatherlink.com 1.10,2013-10-02 00:12:00,
2013-10-01 20:27:00,63.6,61.0,30.24,NW,311,0.0,0.0,90,0.00,,,0.00,weatherlink.com 1.10,2013-10-02 00:27:00,
2013-10-01 20:42:00,63.0,60.0,30.24,NW,311,0.0,0.0,91,0.00,,,0.00,weatherlink.com 1.10,2013-10-02 00:42:00,
2013-10-01 20:57:00,63.0,61.0,30.25,NW,311,0.0,0.0,92,0.00,,,0.00,weatherlink.com 1.10,2013-10-02 00:57:00,
2013-10-01 21:12:00,63.0,61.0,30.25,NW,309,0.0,0.0,92,0.00,,,0.00,weatherlink.com 1.10,2013-10-02 01:12:00,
2013-10-01 21:27:00,62.4,60.0,30.26,NW,309,0.0,0.0,93,0.00,,,0.00,weatherlink.com 1.10,2013-10-02 01:27:00,
2013-10-01 21:42:00,61.7,60.0,30.26,NW,310,0.0,0.0,93,0.00,,,0.00,weatherlink.com 1.10,2013-10-02 01:42:00,
2013-10-01 21:57:00,60.9,59.0,30.26,NW,311,0.0,0.0,94,0.00,,,0.00,weatherlink.com 1.10,2013-10-02 01:57:00,
2013-10-01 22:12:00,60.1,59.0,30.26,NW,309,0.0,0.0,95,0.00,,,0.00,weatherlink.com 1.10,2013-10-02 02:12:00,
2013-10-01 22:27:00,59.5,58.0,30.27,NW,309,0.0,0.0,96,0.00,,,0.00,weatherlink.com 1.10,2013-10-02 02:27:00,
2013-10-01 22:42:00,58.8,57.0,30.27,NW,309,0.0,0.0,95,0.00,,,0.00,weatherlink.com 1.10,2013-10-02 02:42:00,
2013-10-01 22:57:00,58.3,57.0,30.28,NW,309,0.0,0.0,96,0.00,,,0.00,weatherlink.com 1.10,2013-10-02 02:57:00,
2013-10-01 23:12:00,57.8,57.0,30.28,NW,309,0.0,0.0,96,0.00,,,0.00,weatherlink.com 1.10,2013-10-02 03:12:00,
2013-10-01 23:27:00,57.3,57.0,30.27,NW,309,0.0,0.0,97,0.00,,,0.00,weatherlink.com 1.10,2013-10-02 03:27:00,
2013-10-01 23:42:00,56.9,56.0,30.27,NW,309,0.0,0.0,97,0.00,,,0.00,weatherlink.com 1.10,2013-10-02 03:42:00,
2013-10-01 23:57:00,56.6,56.0,30.27,NW,309,0.0,0.0,97,0.00,,,0.00,weatherlink.com 1.10,2013-10-02 03:57:00,